Airfield :
LOGIN :

Register | Disclaimer

   EN    FR    IT 

 










Legend :    VFR   Marginal VFR   IFR   Intensive IFR   Very Intensive IFR
Visi :
Ceiling :
>= 8 km
>= 3000ft
5 to 8 km
1000 to 3000 ft
1500m to 5 km
500 to 1000 ft
800 to 1500m
200 to 500 ft
< 800m
< 200 ft
Symbols :   Thunderstorms  Fog  Heavy snow  Heavy precipitations  Wind > 20 kt
SIGMETs :     Misc.  Thunderstorms  Icing  Turbulence  Mountain Waves  Volcanic Ashes






- Airport Elevation : 137 ft
- IATA code : ARN


ESSA - Stockholm-Arlanda

CURRENT METAR :
  • 250520Z 28006KT CAVOK M00/M04 Q1005 R01L/71//69 R08/71//65 R01R/71//68 NOSIG

EXPIRED METARs :
  • 250450Z 25008KT CAVOK M02/M04 Q1005 R01L/71//69 R08/71//65 R01R/71//68 NOSIG
  • 250420Z 29006KT CAVOK 00/M04 Q1005 R01L/71//69 R08/71//65 R01R/71//68 NOSIG
  • 250350Z 29005KT CAVOK 00/M04 Q1005 R01L/71//69 R08/71//65 R01R/71//68 NOSIG
  • 250320Z 31005KT CAVOK 00/M04 Q1005 R01L/19//70 R08/19//68 R01R/19//66 NOSIG

TAF TAF ESSA
Valid from the 25 at 06:00 until the 26 at 06:00 UTC


250530Z 2506/2606 27006KT CAVOK



MET'MAP, your aeronautical weather chart ! - Copyright ORBIFLY December 2007 - Disclaimer

ORBIFLY MET'MAP TEAM :

Programming & Development : Alexandra Zaïnal
Concept & original design : Baudouin d'Aumeries
Assistance for programming : Marc-Olivier Méhu
Technical & hardware support : Manuel Goepfert

Contact : metmap@orbifly.com




SOURCES & CREDITS :

   NOAA